createdAt,value
2018-09-22T00:01:50.015Z,95189.55
2018-09-22T00:04:18.958Z,95189.77
2018-09-22T00:06:47.784Z,95186.53
2018-09-22T00:09:16.639Z,95189.55
2018-09-22T00:11:45.548Z,95181.24
2018-09-22T00:14:14.289Z,95177.67
2018-09-22T00:16:43.127Z,95176.50
2018-09-22T00:19:13.727Z,95181.86
2018-09-22T00:21:42.712Z,95183.30
2018-09-22T00:24:11.766Z,95183.74
2018-09-22T00:26:40.572Z,95184.26
2018-09-22T00:29:09.416Z,95184.55
2018-09-22T00:31:38.187Z,95185.91
2018-09-22T00:34:07.056Z,95186.73
2018-09-22T00:36:35.924Z,95187.24
2018-09-22T00:39:06.573Z,95185.70
2018-09-22T00:41:35.445Z,95187.53
2018-09-22T00:44:04.441Z,95189.38
2018-09-22T00:46:33.411Z,95184.84
2018-09-22T00:49:02.179Z,95184.63
2018-09-22T00:51:31.496Z,95190.28
2018-09-22T00:54:00.425Z,95188.52
2018-09-22T00:56:29.232Z,95192.71
2018-09-22T00:58:58.137Z,95189.55
2018-09-22T01:01:27.039Z,95184.59
2018-09-22T01:03:55.914Z,95187.24
2018-09-22T01:06:24.870Z,95191.69
2018-09-22T01:08:53.707Z,95186.83
2018-09-22T01:11:22.658Z,95189.99
2018-09-22T01:13:51.519Z,95183.30
2018-09-22T01:16:20.279Z,95184.06
2018-09-22T01:18:49.133Z,95181.34
2018-09-22T01:21:18.041Z,95181.42
2018-09-22T01:23:46.844Z,95184.87
2018-09-22T01:26:15.762Z,95175.02
2018-09-22T01:28:44.560Z,95173.11
2018-09-22T01:31:13.429Z,95180.54
2018-09-22T01:33:42.257Z,95182.45
2018-09-22T01:36:11.061Z,95178.27
2018-09-22T01:38:39.851Z,95182.05
2018-09-22T01:41:08.870Z,95178.08
2018-09-22T01:43:37.748Z,95181.83
2018-09-22T01:46:06.576Z,95183.37
2018-09-22T01:48:35.510Z,95173.77
2018-09-22T01:51:04.357Z,95178.55
2018-09-22T01:53:33.254Z,95184.36
2018-09-22T01:56:02.080Z,95175.47
2018-09-22T01:58:30.961Z,95175.47
2018-09-22T02:00:59.835Z,95176.05
2018-09-22T02:03:28.658Z,95176.27
2018-09-22T02:05:57.462Z,95180.64
2018-09-22T02:08:26.336Z,95182.84
2018-09-22T02:10:55.188Z,95180.49
2018-09-22T02:13:24.134Z,95181.67
2018-09-22T02:15:53.074Z,95184.02
2018-09-22T02:18:21.950Z,95179.05
2018-09-22T02:20:50.818Z,95183.34
2018-09-22T02:23:19.708Z,95181.94
2018-09-22T02:25:48.728Z,95185.09
2018-09-22T02:28:17.516Z,95187.73
2018-09-22T02:30:46.391Z,95179.95
2018-09-22T02:33:15.350Z,95186.55
2018-09-22T02:35:44.536Z,95188.34
2018-09-22T02:38:13.456Z,95189.08
2018-09-22T02:40:42.360Z,95194.73
2018-09-22T02:43:11.217Z,95188.48
2018-09-22T02:45:40.112Z,95192.97
2018-09-22T02:48:09.046Z,95197.16
2018-09-22T02:50:37.910Z,95194.97
2018-09-22T02:53:06.769Z,95200.56
2018-09-22T02:55:35.713Z,95187.92
2018-09-22T02:58:04.704Z,95190.13
2018-09-22T03:00:33.621Z,95194.70
2018-09-22T03:03:02.520Z,95188.98
2018-09-22T03:05:31.397Z,95190.78
2018-09-22T03:08:00.313Z,95183.92
2018-09-22T03:10:29.172Z,95182.69
2018-09-22T03:12:58.064Z,95181.28
2018-09-22T03:15:26.961Z,95185.53
2018-09-22T03:17:55.964Z,95182.59
2018-09-22T03:20:24.801Z,95182.80
2018-09-22T03:22:53.677Z,95188.03
2018-09-22T03:25:22.612Z,95184.06
2018-09-22T03:27:51.450Z,95185.81
2018-09-22T03:30:20.528Z,95187.50
2018-09-22T03:32:49.339Z,95190.95
2018-09-22T03:35:18.260Z,95187.20
2018-09-22T03:37:47.063Z,95185.41
2018-09-22T03:40:15.907Z,95181.75
2018-09-22T03:42:44.950Z,95187.78
2018-09-22T03:45:14.104Z,95183.16
2018-09-22T03:47:42.882Z,95187.84
2018-09-22T03:50:11.690Z,95189.16
2018-09-22T03:52:40.536Z,95189.31
2018-09-22T03:55:09.337Z,95192.66
2018-09-22T03:57:38.204Z,95180.09
2018-09-22T04:00:08.089Z,95180.03
2018-09-22T04:02:36.900Z,95180.39
2018-09-22T04:05:05.864Z,95177.12
2018-09-22T04:07:34.747Z,95176.70
2018-09-22T04:10:03.594Z,95175.94
2018-09-22T04:12:32.565Z,95174.70
2018-09-22T04:15:01.375Z,95174.80
2018-09-22T04:17:30.261Z,95171.48
2018-09-22T04:19:59.192Z,95174.81
2018-09-22T04:22:27.985Z,95164.84
2018-09-22T04:24:56.803Z,95173.80
2018-09-22T04:27:25.662Z,95174.53
2018-09-22T04:29:54.704Z,95178.64
2018-09-22T04:32:23.654Z,95174.11
2018-09-22T04:34:52.449Z,95177.70
2018-09-22T04:37:21.265Z,95179.97
2018-09-22T04:39:50.083Z,95187.17
2018-09-22T04:42:19.029Z,95187.36
2018-09-22T04:44:47.942Z,95193.38
2018-09-22T04:47:16.772Z,95192.48
2018-09-22T04:49:45.659Z,95191.88
2018-09-22T04:52:14.530Z,95196.66
2018-09-22T04:54:43.331Z,95195.84
2018-09-22T04:57:12.203Z,95189.70
2018-09-22T04:59:41.035Z,95195.62
2018-09-22T05:02:10.041Z,95192.98
2018-09-22T05:04:39.156Z,95193.27
2018-09-22T05:07:08.355Z,95193.87
2018-09-22T05:09:37.211Z,95191.81
2018-09-22T05:12:06.465Z,95190.33
2018-09-22T05:14:35.327Z,95194.89
2018-09-22T05:17:04.357Z,95190.70
2018-09-22T05:19:33.412Z,95185.98
2018-09-22T05:22:02.255Z,95192.40
2018-09-22T05:24:31.067Z,95195.98
2018-09-22T05:26:59.863Z,95195.43
2018-09-22T05:29:28.684Z,95196.28
2018-09-22T05:31:57.492Z,95202.67
2018-09-22T05:34:26.503Z,95200.10
2018-09-22T05:36:55.486Z,95202.86
2018-09-22T05:39:24.368Z,95209.22
2018-09-22T05:41:53.257Z,95213.63
2018-09-22T05:44:22.176Z,95206.37
2018-09-22T05:46:51.032Z,95212.00
2018-09-22T05:49:19.865Z,95211.69
2018-09-22T05:51:48.688Z,95215.41
2018-09-22T05:54:17.775Z,95212.71
2018-09-22T05:56:46.663Z,95216.82
2018-09-22T05:59:16.324Z,95212.63
2018-09-22T06:01:45.138Z,95216.59
2018-09-22T06:04:13.989Z,95217.73
2018-09-22T06:06:42.897Z,95224.78
2018-09-22T06:09:11.691Z,95221.03
2018-09-22T06:11:40.571Z,95222.13
2018-09-22T06:14:09.527Z,95220.80
2018-09-22T06:16:38.333Z,95225.62
2018-09-22T06:19:07.241Z,95230.87
2018-09-22T06:21:37.003Z,95230.80
2018-09-22T06:24:05.851Z,95229.77
2018-09-22T06:26:34.688Z,95225.92
2018-09-22T06:29:03.529Z,95226.44
2018-09-22T06:31:32.432Z,95219.22
2018-09-22T06:34:01.327Z,95225.33
2018-09-22T06:36:30.213Z,95230.83
2018-09-22T06:38:59.057Z,95235.81
2018-09-22T06:41:28.554Z,95236.72
2018-09-22T06:43:57.460Z,95238.27
2018-09-22T06:46:26.265Z,95243.53
2018-09-22T06:48:55.160Z,95246.03
2018-09-22T06:51:23.996Z,95251.28
2018-09-22T06:53:52.795Z,95249.88
2018-09-22T06:56:21.756Z,95250.25
2018-09-22T06:58:50.713Z,95258.81
2018-09-22T07:01:19.504Z,95259.45
2018-09-22T07:03:48.334Z,95261.88
2018-09-22T07:06:17.347Z,95255.92
2018-09-22T07:08:46.189Z,95250.23
2018-09-22T07:11:15.016Z,95250.00
2018-09-22T07:13:44.005Z,95254.11
2018-09-22T07:16:13.004Z,95253.78
2018-09-22T07:18:41.867Z,95251.59
2018-09-22T07:21:10.737Z,95245.52
2018-09-22T07:23:39.576Z,95241.66
2018-09-22T07:26:08.488Z,95242.06
2018-09-22T07:28:37.523Z,95238.78
2018-09-22T07:31:06.645Z,95238.88
2018-09-22T07:33:35.491Z,95236.90
2018-09-22T07:36:04.391Z,95239.14
2018-09-22T07:38:33.287Z,95245.55
2018-09-22T07:41:02.117Z,95239.00
2018-09-22T07:43:30.987Z,95237.34
2018-09-22T07:45:59.862Z,95227.80
2018-09-22T07:48:28.689Z,95227.51
2018-09-22T07:50:57.616Z,95224.38
2018-09-22T07:53:27.015Z,95227.41
2018-09-22T07:55:55.880Z,95219.48
2018-09-22T07:58:24.877Z,95214.81
2018-09-22T08:00:53.697Z,95218.14
2018-09-22T08:03:22.664Z,95208.95
2018-09-22T08:05:51.508Z,95210.33
2018-09-22T08:08:20.360Z,95202.13
2018-09-22T08:10:49.295Z,95204.88
2018-09-22T08:13:18.143Z,95204.22
2018-09-22T08:15:47.064Z,95207.20
2018-09-22T08:18:15.988Z,95205.16
2018-09-22T08:20:44.958Z,95197.77
2018-09-22T08:23:13.806Z,95194.90
2018-09-22T08:25:42.671Z,95204.84
2018-09-22T08:28:11.509Z,95196.39
2018-09-22T08:30:40.383Z,95202.84
2018-09-22T08:33:09.275Z,95202.59
2018-09-22T08:35:38.228Z,95199.70
2018-09-22T08:38:07.048Z,95199.77
2018-09-22T08:40:35.967Z,95193.98
2018-09-22T08:43:04.764Z,95192.48
2018-09-22T08:45:33.595Z,95184.53
2018-09-22T08:48:02.495Z,95180.91
2018-09-22T08:50:32.104Z,95180.16
2018-09-22T08:53:00.939Z,95175.95
2018-09-22T08:55:29.885Z,95178.93
2018-09-22T08:57:58.893Z,95175.45
2018-09-22T09:00:27.943Z,95175.22
2018-09-22T09:02:56.956Z,95172.83
2018-09-22T09:05:25.893Z,95174.73
2018-09-22T09:07:54.696Z,95170.76
2018-09-22T09:10:23.546Z,95171.09
2018-09-22T09:12:52.475Z,95166.05
2018-09-22T09:15:21.356Z,95164.98
2018-09-22T09:17:50.243Z,95159.67
2018-09-22T09:20:19.238Z,95164.78
2018-09-22T09:22:48.142Z,95161.30
2018-09-22T09:25:17.017Z,95160.80
2018-09-22T09:27:45.942Z,95158.16
2018-09-22T09:30:14.994Z,95156.83
2018-09-22T09:32:43.867Z,95155.75
2018-09-22T09:35:12.841Z,95156.55
2018-09-22T09:37:41.768Z,95153.09
2018-09-22T09:40:11.018Z,95153.89
2018-09-22T09:42:39.876Z,95153.13
2018-09-22T09:45:08.751Z,95148.59
2018-09-22T09:47:37.593Z,95149.93
2018-09-22T09:50:06.580Z,95142.70
2018-09-22T09:52:35.423Z,95141.62
2018-09-22T09:55:04.263Z,95136.23
2018-09-22T09:57:33.104Z,95132.50
2018-09-22T10:00:02.073Z,95126.30
2018-09-22T10:02:30.944Z,95131.66
2018-09-22T10:04:59.756Z,95125.77
2018-09-22T10:07:28.723Z,95130.83
2018-09-22T10:09:57.683Z,95132.66
2018-09-22T10:12:26.502Z,95129.69
2018-09-22T10:14:55.460Z,95126.73
2018-09-22T10:17:24.415Z,95124.81
2018-09-22T10:19:53.209Z,95120.76
2018-09-22T10:22:22.018Z,95119.64
2018-09-22T10:24:50.928Z,95120.44
2018-09-22T10:27:19.824Z,95118.53
2018-09-22T10:29:48.748Z,95119.58
2018-09-22T10:32:17.660Z,95112.32
2018-09-22T10:34:46.498Z,95113.34
2018-09-22T10:37:15.336Z,95108.20
2018-09-22T10:39:44.271Z,95105.77
2018-09-22T10:42:13.208Z,95110.26
2018-09-22T10:44:42.084Z,95112.06
2018-09-22T10:47:11.031Z,95107.71
2018-09-22T10:49:39.839Z,95107.97
2018-09-22T10:52:08.668Z,95103.88
2018-09-22T10:54:37.524Z,95103.06
2018-09-22T10:57:07.155Z,95095.80
2018-09-22T10:59:36.024Z,95092.50
2018-09-22T11:02:04.977Z,95088.44
2018-09-22T11:04:33.835Z,95082.17
2018-09-22T11:07:02.931Z,95084.53
2018-09-22T11:09:31.841Z,95084.25
2018-09-22T11:12:00.612Z,95080.47
2018-09-22T11:14:29.879Z,95077.98
2018-09-22T11:16:58.745Z,95068.23
2018-09-22T11:19:27.580Z,95069.30
2018-09-22T11:21:56.459Z,95064.43
2018-09-22T11:24:25.567Z,95063.02
2018-09-22T11:26:54.435Z,95065.07
2018-09-22T11:29:23.664Z,95063.06
2018-09-22T11:31:52.580Z,95064.67
2018-09-22T11:34:21.466Z,95056.27
2018-09-22T11:36:50.319Z,95055.99
2018-09-22T11:39:19.238Z,95058.03
2018-09-22T11:41:48.079Z,95059.38
2018-09-22T11:44:17.034Z,95051.55
2018-09-22T11:46:45.964Z,95049.55
2018-09-22T11:49:14.828Z,95047.30
2018-09-22T11:51:43.698Z,95042.92
2018-09-22T11:54:12.613Z,95048.30
2018-09-22T11:56:41.542Z,95046.98
2018-09-22T11:59:10.466Z,95042.38
2018-09-22T12:01:39.417Z,95041.72
2018-09-22T12:04:08.544Z,95035.72
2018-09-22T12:06:37.497Z,95039.05
2018-09-22T12:09:10.105Z,95038.77
2018-09-22T12:11:39.124Z,95037.45
2018-09-22T12:14:08.157Z,95043.92
2018-09-22T12:16:37.229Z,95030.60
2018-09-22T12:19:06.315Z,95027.78
2018-09-22T12:21:35.157Z,95020.20
2018-09-22T12:24:04.287Z,95019.05
2018-09-22T12:26:33.195Z,95025.02
2018-09-22T12:29:02.111Z,95023.93
2018-09-22T12:31:30.960Z,95032.00
2018-09-22T12:33:59.804Z,95025.02
2018-09-22T12:36:28.650Z,95028.48
2018-09-22T12:38:57.480Z,95031.39
2018-09-22T12:41:26.370Z,95031.61
2018-09-22T12:43:55.247Z,95029.94
2018-09-22T12:46:24.106Z,95030.20
2018-09-22T12:48:52.996Z,95034.23
2018-09-22T12:51:21.918Z,95037.88
2018-09-22T12:53:50.985Z,95033.43
2018-09-22T12:56:20.017Z,95028.56
2018-09-22T12:58:48.912Z,95029.28
2018-09-22T13:01:17.796Z,95028.45
2018-09-22T13:03:46.725Z,95023.86
2018-09-22T13:06:16.848Z,95022.73
2018-09-22T13:08:45.752Z,95027.94
2018-09-22T13:11:14.721Z,95024.11
2018-09-22T13:13:43.617Z,95022.98
2018-09-22T13:16:12.503Z,95023.08
2018-09-22T13:18:41.381Z,95016.98
2018-09-22T13:21:10.206Z,95023.05
2018-09-22T13:23:40.244Z,95010.55
2018-09-22T13:26:09.276Z,95007.98
2018-09-22T13:28:38.235Z,95004.48
2018-09-22T13:31:07.335Z,95004.98
2018-09-22T13:33:36.423Z,95010.13
2018-09-22T13:36:05.734Z,95009.08
2018-09-22T13:38:34.743Z,95001.75
2018-09-22T13:41:03.831Z,94999.30
2018-09-22T13:43:32.699Z,95005.97
2018-09-22T13:46:01.713Z,95009.58
2018-09-22T13:48:30.693Z,95001.03
2018-09-22T13:50:59.675Z,95011.02
2018-09-22T13:53:28.685Z,95007.30
2018-09-22T13:55:57.479Z,94999.69
2018-09-22T13:58:26.361Z,95002.13
2018-09-22T14:00:55.254Z,94995.72
2018-09-22T14:03:24.104Z,94991.61
2018-09-22T14:05:53.042Z,94989.46
2018-09-22T14:08:21.928Z,94986.59
2018-09-22T14:10:50.854Z,94979.02
2018-09-22T14:13:19.845Z,94983.18
2018-09-22T14:15:48.862Z,94990.89
2018-09-22T14:18:17.673Z,94990.34
2018-09-22T14:20:46.590Z,94995.56
2018-09-22T14:23:15.401Z,94993.20
2018-09-22T14:25:44.316Z,94984.28
2018-09-22T14:28:13.126Z,94986.67
2018-09-22T14:30:41.951Z,94987.02
2018-09-22T14:33:10.761Z,94986.84
2018-09-22T14:35:39.653Z,94989.46
2018-09-22T14:38:08.567Z,94986.13
2018-09-22T14:40:37.542Z,94981.55
2018-09-22T14:43:06.833Z,94981.55
2018-09-22T14:45:35.792Z,94978.85
2018-09-22T14:48:04.719Z,94978.64
2018-09-22T14:50:33.575Z,94973.84
2018-09-22T14:53:02.398Z,94963.70
2018-09-22T14:55:31.315Z,94962.69
2018-09-22T14:58:00.212Z,94966.59
2018-09-22T15:00:29.085Z,94958.41
2018-09-22T15:02:57.925Z,94962.79
2018-09-22T15:05:26.781Z,94965.77
2018-09-22T15:07:57.021Z,94971.77
2018-09-22T15:10:26.501Z,94973.13
2018-09-22T15:12:55.406Z,94973.20
2018-09-22T15:15:24.381Z,94975.60
2018-09-22T15:17:54.635Z,94975.27
2018-09-22T15:20:23.477Z,94979.19
2018-09-22T15:22:52.404Z,94988.97
2018-09-22T15:25:21.367Z,94998.16
2018-09-22T15:27:50.235Z,95008.13
2018-09-22T15:30:19.151Z,95002.22
2018-09-22T15:32:48.129Z,95004.95
2018-09-22T15:35:16.962Z,95007.97
2018-09-22T15:37:45.805Z,95016.95
2018-09-22T15:40:14.614Z,95015.77
2018-09-22T15:43:09.242Z,95007.58
2018-09-22T15:45:38.153Z,95030.06
2018-09-22T15:48:13.199Z,95025.92
2018-09-22T15:50:42.404Z,95047.27
2018-09-22T15:53:11.286Z,95036.69
2018-09-22T15:55:40.156Z,95039.47
2018-09-22T15:58:09.055Z,95039.30
2018-09-22T16:00:38.054Z,95048.49
2018-09-22T16:03:06.961Z,95047.80
2018-09-22T16:05:35.850Z,95045.25
2018-09-22T16:08:05.151Z,95046.72
2018-09-22T16:10:34.030Z,95057.84
2018-09-22T16:13:02.926Z,95057.10
2018-09-22T16:15:31.913Z,95058.56
2018-09-22T16:18:00.729Z,95058.38
2018-09-22T16:20:29.652Z,95066.49
2018-09-22T16:22:58.531Z,95065.48
2018-09-22T16:25:27.393Z,95073.08
2018-09-22T16:27:56.240Z,95075.30
2018-09-22T16:30:25.136Z,95078.59
2018-09-22T16:32:53.971Z,95086.91
2018-09-22T16:35:22.858Z,95086.45
2018-09-22T16:37:51.874Z,95094.50
2018-09-22T16:40:20.881Z,95093.50
2018-09-22T16:42:49.754Z,95100.22
2018-09-22T16:45:18.737Z,95102.68
2018-09-22T16:47:47.683Z,95105.70
2018-09-22T16:50:16.518Z,95101.55
2018-09-22T16:52:45.363Z,95106.45
2018-09-22T16:55:14.302Z,95108.92
2018-09-22T16:57:43.177Z,95112.45
2018-09-22T17:00:12.105Z,95113.56
2018-09-22T17:02:40.983Z,95120.27
2018-09-22T17:05:10.812Z,95120.81
2018-09-22T17:07:39.713Z,95123.52
2018-09-22T17:10:08.543Z,95127.55
2018-09-22T17:12:38.589Z,95123.03
2018-09-22T17:15:07.678Z,95120.65
2018-09-22T17:17:36.557Z,95128.15
2018-09-22T17:20:05.508Z,95127.61
2018-09-22T17:22:34.395Z,95131.36
2018-09-22T17:25:03.378Z,95132.73
2018-09-22T17:27:32.305Z,95127.64
2018-09-22T17:30:01.260Z,95124.73
2018-09-22T17:32:30.152Z,95125.78
2018-09-22T17:34:59.123Z,95122.87
2018-09-22T17:37:28.257Z,95130.11
2018-09-22T17:39:57.090Z,95131.17
2018-09-22T17:42:26.017Z,95129.56
2018-09-22T17:44:54.894Z,95138.15
2018-09-22T17:47:23.749Z,95146.96
2018-09-22T17:49:52.785Z,95146.19
2018-09-22T17:52:21.654Z,95153.67
2018-09-22T17:54:57.209Z,95151.77
2018-09-22T17:57:26.152Z,95150.67
2018-09-22T17:59:55.085Z,95157.38
2018-09-22T18:02:24.147Z,95162.98
2018-09-22T18:04:52.977Z,95162.43
2018-09-22T18:07:21.806Z,95157.08
2018-09-22T18:09:50.612Z,95158.14
2018-09-22T18:12:19.525Z,95164.27
2018-09-22T18:14:48.375Z,95167.45
2018-09-22T18:17:17.319Z,95173.55
2018-09-22T18:19:46.333Z,95179.38
2018-09-22T18:22:15.197Z,95178.83
2018-09-22T18:24:44.006Z,95174.22
2018-09-22T18:27:13.327Z,95176.03
2018-09-22T18:29:42.201Z,95181.38
2018-09-22T18:32:11.007Z,95187.45
2018-09-22T18:34:39.798Z,95188.78
2018-09-22T18:37:08.694Z,95197.55
2018-09-22T18:39:37.881Z,95202.61
2018-09-22T18:42:06.779Z,95202.34
2018-09-22T18:44:35.603Z,95202.05
2018-09-22T18:47:04.498Z,95207.86
2018-09-22T18:49:33.407Z,95212.37
2018-09-22T18:52:02.293Z,95213.38
2018-09-22T18:54:31.111Z,95216.59
2018-09-22T18:57:00.124Z,95218.95
2018-09-22T18:59:29.114Z,95225.91
2018-09-22T19:01:58.210Z,95235.73
2018-09-22T19:04:27.392Z,95237.33
2018-09-22T19:06:56.239Z,95237.83
2018-09-22T19:09:25.128Z,95237.73
2018-09-22T19:11:54.035Z,95247.01
2018-09-22T19:14:27.681Z,95246.39
2018-09-22T19:17:02.197Z,95245.80
2018-09-22T19:19:35.812Z,95250.56
2018-09-22T19:22:06.699Z,95259.16
2018-09-22T19:24:50.594Z,95260.48
2018-09-22T19:27:32.806Z,95266.84
2018-09-22T19:30:08.275Z,95259.65
2018-09-22T19:32:40.197Z,95264.73
2018-09-22T19:35:13.549Z,95263.13
2018-09-22T19:38:06.223Z,95267.09
2018-09-22T19:40:41.229Z,95273.92
2018-09-22T19:43:14.124Z,95273.86
2018-09-22T19:45:48.312Z,95269.78
2018-09-22T19:49:20.202Z,95271.92
2018-09-22T19:51:52.605Z,95273.86
2018-09-22T19:54:21.454Z,95273.08
2018-09-22T19:56:50.388Z,95265.13
2018-09-22T19:59:19.303Z,95272.88
2018-09-22T20:01:48.208Z,95271.26
2018-09-22T20:04:17.232Z,95266.98
2018-09-22T20:06:46.205Z,95275.53
2018-09-22T20:09:15.171Z,95281.95
2018-09-22T20:11:44.172Z,95288.69
2018-09-22T20:14:13.272Z,95294.09
2018-09-22T20:16:42.187Z,95293.88
2018-09-22T20:19:11.177Z,95292.05
2018-09-22T20:21:40.033Z,95296.58
2018-09-22T20:24:08.936Z,95291.77
2018-09-22T20:26:37.950Z,95290.44
2018-09-22T20:29:06.880Z,95292.86
2018-09-22T20:31:35.821Z,95294.72
2018-09-22T20:34:04.784Z,95294.09
2018-09-22T20:36:33.676Z,95289.46
2018-09-22T20:39:03.015Z,95284.80
2018-09-22T20:41:31.889Z,95287.42
2018-09-22T20:44:00.708Z,95283.06
2018-09-22T20:46:29.570Z,95286.21
2018-09-22T20:48:58.520Z,95289.04
2018-09-22T20:51:27.409Z,95289.76
2018-09-22T20:53:56.361Z,95294.12
2018-09-22T20:56:25.408Z,95301.83
2018-09-22T20:58:54.335Z,95298.08
2018-09-22T21:01:23.219Z,95304.73
2018-09-22T21:03:52.084Z,95301.27
2018-09-22T21:06:21.427Z,95306.63
2018-09-22T21:08:50.624Z,95305.58
2018-09-22T21:11:19.477Z,95307.20
2018-09-22T21:13:48.286Z,95306.27
2018-09-22T21:16:17.299Z,95307.92
2018-09-22T21:18:46.337Z,95304.13
2018-09-22T21:21:15.379Z,95310.27
2018-09-22T21:23:44.409Z,95312.36
2018-09-22T21:26:13.285Z,95312.53
2018-09-22T21:28:42.103Z,95311.72
2018-09-22T21:31:11.069Z,95310.86
2018-09-22T21:33:39.929Z,95314.72
2018-09-22T21:36:08.763Z,95314.96
2018-09-22T21:38:37.764Z,95312.06
2018-09-22T21:41:06.651Z,95317.10
2018-09-22T21:43:35.447Z,95318.14
2018-09-22T21:46:04.338Z,95312.44
2018-09-22T21:48:33.272Z,95319.00
2018-09-22T21:51:02.284Z,95317.14
2018-09-22T21:53:31.062Z,95315.00
2018-09-22T21:55:59.959Z,95309.88
2018-09-22T21:58:28.971Z,95312.81
2018-09-22T22:00:57.836Z,95304.30
2018-09-22T22:03:26.747Z,95313.77
2018-09-22T22:05:55.658Z,95312.61
2018-09-22T22:08:24.871Z,95314.14
2018-09-22T22:10:53.905Z,95320.20
2018-09-22T22:13:23.792Z,95322.01
2018-09-22T22:15:52.611Z,95323.03
2018-09-22T22:18:21.453Z,95320.90
2018-09-22T22:20:50.328Z,95327.55
2018-09-22T22:23:19.288Z,95329.98
2018-09-22T22:25:48.301Z,95335.17
2018-09-22T22:28:17.213Z,95332.57
2018-09-22T22:30:46.100Z,95337.89
2018-09-22T22:33:14.910Z,95330.89
2018-09-22T22:35:43.728Z,95334.11
2018-09-22T22:38:12.649Z,95331.33
2018-09-22T22:40:41.498Z,95334.17
2018-09-22T22:43:10.349Z,95334.64
2018-09-22T22:45:39.227Z,95333.48
2018-09-22T22:48:08.192Z,95331.71
2018-09-22T22:50:37.083Z,95331.35
2018-09-22T22:53:05.961Z,95326.95
2018-09-22T22:55:34.792Z,95331.69
2018-09-22T22:58:03.665Z,95330.16
2018-09-22T23:00:32.652Z,95335.00
2018-09-22T23:03:01.581Z,95335.75
2018-09-22T23:05:30.426Z,95334.13
2018-09-22T23:07:59.260Z,95342.16
2018-09-22T23:10:28.104Z,95336.80
2018-09-22T23:12:56.936Z,95341.25
2018-09-22T23:15:25.784Z,95338.77
2018-09-22T23:17:54.702Z,95342.84
2018-09-22T23:20:23.551Z,95338.03
2018-09-22T23:22:52.529Z,95341.91
2018-09-22T23:25:21.387Z,95346.84
2018-09-22T23:27:50.243Z,95349.28
2018-09-22T23:30:19.218Z,95359.11
2018-09-22T23:32:48.114Z,95357.94
2018-09-22T23:35:16.988Z,95363.48
2018-09-22T23:37:45.788Z,95367.24
2018-09-22T23:40:14.727Z,95373.67
2018-09-22T23:42:43.592Z,95375.58
2018-09-22T23:45:12.589Z,95372.45
2018-09-22T23:47:41.444Z,95373.16
2018-09-22T23:50:10.361Z,95370.16
2018-09-22T23:52:39.212Z,95370.14
2018-09-22T23:55:08.366Z,95368.18
2018-09-22T23:57:37.256Z,95362.28
